Time;durP1;ratioP1;P1;durP2;ratioP2;P2;SDS_P1;SDS_P2;PMS_P1;PMS_P2;Temp;Humidity;BMP_temperature;BMP_pressure;BME280_temperature;BME280_humidity;BME280_pressure;Samples;Min_cycle;Max_cycle;Signal;HPM_P1;HPM_P2
2021/04/28 00:00:30;;;;;;;8.40;5.25;;;9.70;76.70;;;;;;5059499;28;20036;-71
2021/04/28 00:02:56;;;;;;;6.57;3.83;;;9.70;78.70;;;;;;5058798;28;20112;-72
2021/04/28 00:05:23;;;;;;;5.05;4.63;;;9.70;80.90;;;;;;5060824;28;20017;-72
2021/04/28 00:07:50;;;;;;;8.68;4.80;;;9.70;82.50;;;;;;5062462;28;20115;-72
2021/04/28 00:10:19;;;;;;;4.53;4.07;;;9.60;83.30;;;;;;5060662;28;20024;-71
2021/04/28 00:12:45;;;;;;;8.00;4.75;;;9.70;82.80;;;;;;5051885;28;20029;-71
2021/04/28 00:15:24;;;;;;;7.88;4.30;;;9.60;83.60;;;;;;5058861;28;20391;-70
2021/04/28 00:17:51;;;;;;;5.25;4.72;;;9.60;83.60;;;;;;5058904;28;20111;-71
2021/04/28 00:20:17;;;;;;;8.05;4.68;;;9.60;83.90;;;;;;5056415;28;20078;-71
2021/04/28 00:22:43;;;;;;;6.38;4.53;;;9.60;83.00;;;;;;5057071;28;20112;-72
2021/04/28 00:25:13;;;;;;;6.68;4.68;;;9.60;84.20;;;;;;5057751;28;20084;-73
2021/04/28 00:27:39;;;;;;;7.05;4.93;;;9.60;83.80;;;;;;5069946;28;20024;-72
2021/04/28 00:30:07;;;;;;;9.05;4.55;;;9.50;83.60;;;;;;5060289;28;20044;-73
2021/04/28 00:32:34;;;;;;;9.90;5.68;;;9.50;82.20;;;;;;5057835;28;20033;-73
2021/04/28 00:35:01;;;;;;;11.35;5.10;;;9.50;82.20;;;;;;5055410;28;20021;-71
2021/04/28 00:37:26;;;;;;;10.25;5.07;;;9.50;82.20;;;;;;5035979;28;20075;-73
2021/04/28 00:39:52;;;;;;;9.50;4.50;;;9.50;82.20;;;;;;5058436;28;20040;-73
2021/04/28 00:42:18;;;;;;;8.25;4.85;;;9.40;82.20;;;;;;5056811;28;20529;-72
2021/04/28 00:44:44;;;;;;;8.60;5.20;;;9.30;81.70;;;;;;5059652;28;20048;-72
2021/04/28 00:47:10;;;;;;;10.65;5.60;;;9.30;82.00;;;;;;5058426;28;20470;-72
2021/04/28 00:49:35;;;;;;;8.45;5.10;;;9.30;82.10;;;;;;5056552;28;20041;-72
2021/04/28 00:52:04;;;;;;;13.10;5.47;;;9.30;81.60;;;;;;5059838;28;20071;-73
2021/04/28 00:54:31;;;;;;;9.07;4.65;;;9.40;80.80;;;;;;5058092;28;20025;-73
2021/04/28 00:56:58;;;;;;;11.52;5.20;;;9.40;80.40;;;;;;5059706;28;20050;-72
2021/04/28 00:59:25;;;;;;;8.20;5.10;;;9.40;80.80;;;;;;5056820;28;20029;-73
2021/04/28 01:01:51;;;;;;;11.15;5.03;;;9.30;80.40;;;;;;5060835;28;20021;-72
2021/04/28 01:04:17;;;;;;;9.18;4.95;;;9.40;80.40;;;;;;5060574;28;20086;-72
2021/04/28 01:06:45;;;;;;;7.88;5.28;;;9.30;80.40;;;;;;5059884;28;20064;-72
2021/04/28 01:09:14;;;;;;;8.02;4.75;;;9.30;80.20;;;;;;5040861;28;20043;-71
2021/04/28 01:11:41;;;;;;;6.90;4.82;;;9.30;80.20;;;;;;5044909;28;20017;-72
2021/04/28 01:14:07;;;;;;;8.77;5.43;;;9.30;80.40;;;;;;5060966;28;20036;-72
2021/04/28 01:16:34;;;;;;;9.27;4.93;;;9.30;80.90;;;;;;5059294;28;20439;-72
2021/04/28 01:19:02;;;;;;;11.40;5.82;;;9.30;80.90;;;;;;5062328;28;20512;-71
2021/04/28 01:21:28;;;;;;;7.97;5.03;;;9.30;80.20;;;;;;5067952;28;20029;-71
2021/04/28 01:23:54;;;;;;;9.20;5.50;;;9.30;80.70;;;;;;5064879;28;20051;-71
2021/04/28 01:26:26;;;;;;;7.63;5.70;;;9.20;81.20;;;;;;5049769;28;20025;-73
2021/04/28 01:28:53;;;;;;;8.60;5.45;;;9.30;81.00;;;;;;5060433;28;20073;-71
2021/04/28 01:31:21;;;;;;;8.82;5.25;;;9.20;80.20;;;;;;5053168;28;20381;-72
2021/04/28 01:33:53;;;;;;;8.25;5.30;;;9.30;79.80;;;;;;5072501;28;20028;-72
2021/04/28 01:36:22;;;;;;;7.05;5.55;;;9.20;80.90;;;;;;5044452;28;20014;-72
2021/04/28 01:38:51;;;;;;;8.07;5.25;;;9.20;80.50;;;;;;5065084;28;20115;-72
2021/04/28 01:41:18;;;;;;;9.50;5.22;;;9.30;79.50;;;;;;5069189;28;20067;-71
2021/04/28 01:43:45;;;;;;;8.63;5.22;;;9.30;79.20;;;;;;5067222;28;20080;-71
2021/04/28 01:46:12;;;;;;;9.55;5.90;;;9.20;79.10;;;;;;5061302;28;20389;-72
2021/04/28 01:48:41;;;;;;;9.75;5.07;;;9.10;79.30;;;;;;5067096;28;20499;-71
2021/04/28 01:51:07;;;;;;;8.48;5.30;;;9.20;78.80;;;;;;5066691;28;20033;-72
2021/04/28 01:53:33;;;;;;;10.38;5.45;;;9.10;78.90;;;;;;5073725;28;20101;-71
2021/04/28 01:55:59;;;;;;;6.47;5.53;;;9.10;79.80;;;;;;5062027;28;20059;-71
2021/04/28 01:58:28;;;;;;;14.93;6.10;;;9.10;79.70;;;;;;5067478;28;20038;-72
2021/04/28 02:00:54;;;;;;;8.02;5.20;;;9.10;80.30;;;;;;5067624;28;20388;-73
2021/04/28 02:03:27;;;;;;;9.35;6.25;;;9.00;79.60;;;;;;5075342;28;20557;-72
2021/04/28 02:05:53;;;;;;;7.88;5.63;;;8.90;80.60;;;;;;5068183;28;20417;-72
2021/04/28 02:08:20;;;;;;;8.88;5.90;;;8.90;81.10;;;;;;5064261;28;20051;-71
2021/04/28 02:10:46;;;;;;;11.50;6.13;;;9.00;80.70;;;;;;5071390;28;20381;-72
2021/04/28 02:13:14;;;;;;;9.85;6.45;;;9.00;80.70;;;;;;5071350;28;20032;-71
2021/04/28 02:15:42;;;;;;;10.77;6.00;;;8.80;82.30;;;;;;5071377;28;20055;-71
2021/04/28 02:18:09;;;;;;;10.40;5.95;;;8.90;81.60;;;;;;5070889;28;20029;-71
2021/04/28 02:20:35;;;;;;;10.18;6.15;;;8.90;81.80;;;;;;5068054;28;20500;-71
2021/04/28 02:23:03;;;;;;;9.48;5.60;;;8.90;81.40;;;;;;5066393;28;20058;-72
2021/04/28 02:25:29;;;;;;;9.48;5.72;;;9.00;81.00;;;;;;5063801;28;20016;-71
2021/04/28 02:27:54;;;;;;;7.32;5.85;;;8.90;81.00;;;;;;5062383;28;20071;-72
2021/04/28 02:30:23;;;;;;;9.63;5.20;;;8.80;81.80;;;;;;5064076;28;20033;-72
2021/04/28 02:32:50;;;;;;;8.75;5.53;;;8.70;82.20;;;;;;5055031;28;20449;-72
2021/04/28 02:35:17;;;;;;;10.00;6.03;;;8.70;82.80;;;;;;5061910;28;20115;-71
2021/04/28 02:37:47;;;;;;;12.55;6.43;;;8.70;82.50;;;;;;5065890;28;20020;-71
2021/04/28 02:40:14;;;;;;;6.30;5.32;;;8.70;82.50;;;;;;5060514;28;20040;-71
2021/04/28 02:42:43;;;;;;;15.55;6.80;;;8.60;83.20;;;;;;5068341;28;20013;-71
2021/04/28 02:45:09;;;;;;;10.40;5.93;;;8.50;84.20;;;;;;5065210;28;20089;-72
2021/04/28 02:47:35;;;;;;;8.73;6.25;;;8.40;84.90;;;;;;5072278;28;20024;-72
2021/04/28 02:50:05;;;;;;;9.13;6.18;;;8.50;84.50;;;;;;5069316;28;20036;-71
2021/04/28 02:52:32;;;;;;;11.02;6.53;;;8.50;84.20;;;;;;5065295;28;20501;-71
2021/04/28 02:54:58;;;;;;;11.73;7.28;;;8.50;83.10;;;;;;5067794;28;20025;-71
2021/04/28 02:57:24;;;;;;;12.25;6.53;;;8.60;83.60;;;;;;5068373;28;20031;-71
2021/04/28 02:59:51;;;;;;;12.00;7.00;;;8.50;83.70;;;;;;5056865;28;20064;-71
2021/04/28 03:02:17;;;;;;;9.57;6.43;;;8.60;83.40;;;;;;5068036;28;20013;-71
2021/04/28 03:04:44;;;;;;;7.97;6.63;;;8.60;84.80;;;;;;5066815;28;20033;-71
2021/04/28 03:07:14;;;;;;;8.00;6.65;;;8.50;84.80;;;;;;5066462;28;20111;-70
2021/04/28 03:09:41;;;;;;;7.50;6.47;;;8.50;85.40;;;;;;5062453;28;20025;-71
2021/04/28 03:12:07;;;;;;;10.20;5.72;;;8.40;85.20;;;;;;5060281;28;20032;-71
2021/04/28 03:14:33;;;;;;;13.00;6.93;;;8.30;85.30;;;;;;5064278;28;20097;-72
2021/04/28 03:16:59;;;;;;;8.00;6.20;;;8.30;84.80;;;;;;5067042;28;20067;-72
2021/04/28 03:19:25;;;;;;;10.98;6.63;;;8.30;84.20;;;;;;5046071;28;20124;-71
2021/04/28 03:21:51;;;;;;;12.80;7.50;;;8.30;84.70;;;;;;5052300;28;20121;-70
2021/04/28 03:24:19;;;;;;;9.85;7.35;;;8.20;85.40;;;;;;5083991;28;20488;-71
2021/04/28 03:26:45;;;;;;;11.35;7.30;;;8.20;85.50;;;;;;5064815;28;20035;-71
2021/04/28 03:29:11;;;;;;;12.80;7.25;;;8.30;85.20;;;;;;5060620;28;20029;-71
2021/04/28 03:31:36;;;;;;;10.10;7.00;;;8.30;86.00;;;;;;5063678;28;20025;-71
2021/04/28 03:34:02;;;;;;;10.90;7.38;;;8.20;87.00;;;;;;5066450;28;20033;-71
2021/04/28 03:36:28;;;;;;;8.75;7.10;;;8.10;87.60;;;;;;5061653;28;20072;-72
2021/04/28 03:38:54;;;;;;;9.18;6.43;;;8.00;87.90;;;;;;5063006;28;20119;-72
2021/04/28 03:41:21;;;;;;;10.95;7.40;;;8.00;87.60;;;;;;5066820;28;20038;-72
2021/04/28 03:43:46;;;;;;;11.35;7.50;;;8.10;87.20;;;;;;5066665;28;20469;-71
2021/04/28 03:46:12;;;;;;;11.25;7.35;;;8.10;87.00;;;;;;5061711;28;20020;-71
2021/04/28 03:48:38;;;;;;;13.52;8.00;;;8.00;87.30;;;;;;5063426;28;20412;-71
2021/04/28 03:51:04;;;;;;;13.43;8.27;;;8.00;87.50;;;;;;5068647;28;20024;-72
2021/04/28 03:53:30;;;;;;;11.63;8.80;;;8.00;87.70;;;;;;5070689;28;20499;-71
2021/04/28 03:55:56;;;;;;;10.60;7.07;;;7.90;87.60;;;;;;5063100;28;20025;-71
2021/04/28 03:58:21;;;;;;;14.20;7.97;;;7.90;88.00;;;;;;5057888;28;20507;-71
2021/04/28 04:00:47;;;;;;;15.63;7.57;;;7.80;88.10;;;;;;5063346;28;20028;-71
2021/04/28 04:03:12;;;;;;;15.52;7.72;;;7.80;88.20;;;;;;5068062;28;20070;-71
2021/04/28 04:05:38;;;;;;;13.07;7.70;;;7.70;89.50;;;;;;5062734;28;20374;-71
2021/04/28 04:08:04;;;;;;;10.82;8.43;;;7.70;90.30;;;;;;5061834;28;20579;-71
2021/04/28 04:10:30;;;;;;;9.48;7.35;;;7.70;90.40;;;;;;5063726;28;20370;-70
2021/04/28 04:12:56;;;;;;;10.32;7.90;;;7.60;90.50;;;;;;5069314;28;20487;-70
2021/04/28 04:15:22;;;;;;;12.57;7.80;;;7.50;90.60;;;;;;5073545;28;20091;-71
2021/04/28 04:17:47;;;;;;;14.45;8.98;;;7.40;90.50;;;;;;5079775;28;20028;-71
2021/04/28 04:20:13;;;;;;;10.20;8.25;;;7.30;90.40;;;;;;5075462;28;20503;-71
2021/04/28 04:22:39;;;;;;;13.48;8.68;;;7.30;90.70;;;;;;5057939;28;20021;-70
2021/04/28 04:25:06;;;;;;;15.70;8.98;;;7.20;90.90;;;;;;5067792;28;20426;-71
2021/04/28 04:27:33;;;;;;;14.80;9.32;;;7.20;91.00;;;;;;5063026;28;20477;-70
2021/04/28 04:29:59;;;;;;;16.58;9.13;;;7.30;90.80;;;;;;5062962;28;20380;-71
2021/04/28 04:32:25;;;;;;;17.40;8.55;;;7.30;90.90;;;;;;5065052;28;20044;-70
2021/04/28 04:34:50;;;;;;;14.25;8.85;;;7.40;90.90;;;;;;5069602;28;20048;-71
2021/04/28 04:37:16;;;;;;;16.60;9.20;;;7.30;91.00;;;;;;5074303;28;20036;-70
2021/04/28 04:39:41;;;;;;;12.95;9.15;;;7.40;91.30;;;;;;5072450;28;20049;-71
2021/04/28 04:42:08;;;;;;;14.73;8.23;;;7.50;91.00;;;;;;5063510;28;20469;-70
2021/04/28 04:44:34;;;;;;;12.82;8.27;;;7.50;91.00;;;;;;5074488;28;20157;-70
2021/04/28 04:47:00;;;;;;;17.60;8.32;;;7.50;90.70;;;;;;5056990;28;20427;-70
2021/04/28 04:49:26;;;;;;;11.55;8.35;;;7.50;91.10;;;;;;5057177;28;20063;-70
2021/04/28 04:51:51;;;;;;;12.43;8.45;;;7.50;91.20;;;;;;5063978;28;20029;-70
2021/04/28 04:54:17;;;;;;;17.13;8.43;;;7.60;91.40;;;;;;5058994;28;20416;-70
2021/04/28 04:56:42;;;;;;;12.27;8.52;;;7.70;91.50;;;;;;5072317;28;20036;-70
2021/04/28 04:59:08;;;;;;;10.20;8.38;;;7.70;91.90;;;;;;5072853;28;20489;-71
2021/04/28 05:01:34;;;;;;;12.63;8.50;;;7.80;91.50;;;;;;5061064;28;20029;-70
2021/04/28 05:03:59;;;;;;;11.27;8.77;;;7.80;91.60;;;;;;5070154;28;20032;-70
2021/04/28 05:06:25;;;;;;;12.48;8.30;;;7.90;91.60;;;;;;5065870;28;20107;-70
2021/04/28 05:08:51;;;;;;;14.93;9.00;;;7.90;92.90;;;;;;5063523;28;20037;-70
2021/04/28 05:11:17;;;;;;;18.05;8.70;;;8.00;92.40;;;;;;5059097;28;20031;-70
2021/04/28 05:13:42;;;;;;;13.60;9.43;;;8.10;93.00;;;;;;5070279;28;20484;-71
2021/04/28 05:16:08;;;;;;;15.18;9.15;;;8.20;92.10;;;;;;5065491;28;20028;-70
2021/04/28 05:18:34;;;;;;;17.85;9.50;;;8.30;92.50;;;;;;5069700;28;20037;-71
2021/04/28 05:20:59;;;;;;;16.08;9.23;;;8.30;91.40;;;;;;5062754;28;20040;-70
2021/04/28 05:23:25;;;;;;;16.58;8.80;;;8.30;91.90;;;;;;5068766;28;20108;-71
2021/04/28 05:25:50;;;;;;;10.23;8.38;;;8.40;91.20;;;;;;5066197;28;20029;-71
2021/04/28 05:28:16;;;;;;;14.07;8.50;;;8.40;91.20;;;;;;5064400;28;20366;-71
2021/04/28 05:30:42;;;;;;;11.63;9.18;;;8.40;91.30;;;;;;5064031;28;20042;-71
2021/04/28 05:33:07;;;;;;;18.20;9.70;;;8.40;92.00;;;;;;5067959;28;20240;-71
2021/04/28 05:35:33;;;;;;;18.05;9.38;;;8.40;92.10;;;;;;5063929;28;20115;-72
2021/04/28 05:37:59;;;;;;;15.25;9.52;;;8.30;91.90;;;;;;5066792;28;20097;-72
2021/04/28 05:40:25;;;;;;;17.67;9.27;;;8.40;91.70;;;;;;5063007;28;20388;-71
2021/04/28 05:42:51;;;;;;;18.17;9.25;;;8.60;91.60;;;;;;5059506;28;20033;-71
2021/04/28 05:45:17;;;;;;;16.95;9.95;;;8.60;91.50;;;;;;5071118;28;20481;-72
2021/04/28 05:47:43;;;;;;;17.80;8.45;;;8.50;92.10;;;;;;5064041;28;20040;-73
2021/04/28 05:50:12;;;;;;;14.45;9.68;;;8.60;91.70;;;;;;5063860;28;20017;-72
2021/04/28 05:52:38;;;;;;;18.88;9.48;;;8.70;91.70;;;;;;5065971;28;20021;-72
2021/04/28 05:55:05;;;;;;;21.38;9.70;;;8.80;91.10;;;;;;5071897;28;20035;-71
2021/04/28 05:57:32;;;;;;;20.90;10.30;;;8.80;91.50;;;;;;5049886;28;20016;-71
2021/04/28 06:00:11;;;;;;;24.92;9.88;;;8.80;91.10;;;;;;5067190;28;20041;-72
2021/04/28 06:02:36;;;;;;;19.50;10.95;;;8.80;91.30;;;;;;5068387;28;20460;-72
2021/04/28 06:05:03;;;;;;;12.45;9.52;;;8.80;92.30;;;;;;5063639;28;20113;-72
2021/04/28 06:07:29;;;;;;;21.30;8.80;;;8.80;91.70;;;;;;5060973;28;20455;-72
2021/04/28 06:09:54;;;;;;;17.58;9.68;;;8.90;92.00;;;;;;5065549;28;20029;-71
2021/04/28 06:12:20;;;;;;;20.55;10.02;;;8.90;92.00;;;;;;5058042;28;21073;-71
2021/04/28 06:14:46;;;;;;;16.83;9.57;;;8.90;91.90;;;;;;5063510;28;20056;-71
2021/04/28 06:17:12;;;;;;;20.08;8.80;;;9.00;92.00;;;;;;5064595;28;20055;-71
2021/04/28 06:19:37;;;;;;;16.23;8.48;;;8.90;92.00;;;;;;5061803;28;20060;-72
2021/04/28 06:22:03;;;;;;;13.15;9.10;;;9.00;92.20;;;;;;5070511;28;20029;-72
2021/04/28 06:24:29;;;;;;;16.50;9.50;;;9.00;92.30;;;;;;5053507;28;20028;-71
2021/04/28 06:26:55;;;;;;;15.57;8.93;;;9.10;92.20;;;;;;5063119;28;20078;-73
2021/04/28 06:29:20;;;;;;;15.57;9.45;;;9.10;92.80;;;;;;5075868;28;20104;-73
2021/04/28 06:31:46;;;;;;;13.05;8.65;;;9.00;92.80;;;;;;5058131;28;20104;-73
2021/04/28 06:34:12;;;;;;;15.68;9.23;;;9.10;92.50;;;;;;5059532;28;20469;-72
2021/04/28 06:36:38;;;;;;;14.35;8.30;;;9.10;92.40;;;;;;5063863;28;20024;-72
2021/04/28 06:39:04;;;;;;;14.32;9.07;;;9.10;91.60;;;;;;5062694;28;20090;-72
2021/04/28 06:41:31;;;;;;;12.80;8.93;;;9.10;92.50;;;;;;5063267;28;20123;-71
2021/04/28 06:43:56;;;;;;;15.23;8.98;;;9.20;92.10;;;;;;5063252;28;20029;-71
2021/04/28 06:46:22;;;;;;;15.40;8.95;;;9.30;92.30;;;;;;5062068;28;20371;-73
2021/04/28 06:48:48;;;;;;;14.57;9.35;;;9.40;92.30;;;;;;5050906;28;20028;-73
2021/04/28 06:51:13;;;;;;;14.77;9.38;;;9.60;92.10;;;;;;5067605;28;20522;-72
2021/04/28 06:53:39;;;;;;;16.58;9.70;;;9.60;92.10;;;;;;5061016;28;20503;-73
2021/04/28 06:56:04;;;;;;;14.45;8.55;;;9.60;91.90;;;;;;5064883;28;20160;-73
2021/04/28 06:58:31;;;;;;;17.48;9.73;;;9.70;91.50;;;;;;5068159;28;20112;-72
2021/04/28 07:00:56;;;;;;;26.95;9.48;;;9.80;91.70;;;;;;5068218;28;20017;-72
2021/04/28 07:03:22;;;;;;;19.40;10.23;;;9.90;92.30;;;;;;5068505;28;20033;-72
2021/04/28 07:05:48;;;;;;;18.25;10.30;;;10.10;91.40;;;;;;5067468;28;20056;-72
2021/04/28 07:08:13;;;;;;;17.05;9.77;;;10.20;91.30;;;;;;5071178;28;20043;-72
2021/04/28 07:10:39;;;;;;;19.77;10.40;;;10.40;91.10;;;;;;5065229;28;20052;-71
2021/04/28 07:13:07;;;;;;;16.33;10.82;;;10.40;91.10;;;;;;5067589;28;20039;-72
2021/04/28 07:15:33;;;;;;;21.65;11.05;;;10.50;91.10;;;;;;5060347;28;20497;-73
2021/04/28 07:17:59;;;;;;;19.70;11.10;;;10.70;91.50;;;;;;5061618;28;20040;-72
2021/04/28 07:20:25;;;;;;;16.65;11.68;;;10.70;91.30;;;;;;5059465;28;20037;-73
2021/04/28 07:22:52;;;;;;;22.85;10.68;;;11.00;91.20;;;;;;5047413;28;20467;-72
2021/04/28 07:25:17;;;;;;;19.95;10.50;;;11.00;90.40;;;;;;5051676;28;20024;-73
2021/04/28 07:27:43;;;;;;;18.60;10.48;;;11.10;90.50;;;;;;5051803;28;20043;-72
2021/04/28 07:30:11;;;;;;;17.83;10.02;;;11.20;90.30;;;;;;5066648;28;20052;-73
2021/04/28 07:32:37;;;;;;;21.83;10.75;;;11.50;90.50;;;;;;5047868;28;20373;-73
2021/04/28 07:35:04;;;;;;;19.70;11.57;;;11.80;89.90;;;;;;5059307;28;20032;-72
2021/04/28 07:37:30;;;;;;;17.25;10.98;;;12.00;88.80;;;;;;5066121;28;20036;-73
2021/04/28 07:39:55;;;;;;;16.40;10.88;;;12.00;88.80;;;;;;5064816;28;20041;-71
2021/04/28 07:42:21;;;;;;;17.17;11.80;;;12.10;88.80;;;;;;5058680;28;20020;-71
2021/04/28 07:44:47;;;;;;;19.73;11.00;;;12.30;88.50;;;;;;5063639;28;20098;-73
2021/04/28 07:47:14;;;;;;;20.88;10.27;;;12.60;89.00;;;;;;5065324;28;20049;-72
2021/04/28 07:49:40;;;;;;;18.88;10.80;;;12.70;89.30;;;;;;5062728;28;20489;-72
2021/04/28 07:52:05;;;;;;;15.48;10.73;;;12.80;88.20;;;;;;5063714;28;20064;-72
2021/04/28 07:54:31;;;;;;;20.95;10.98;;;12.90;87.80;;;;;;5063480;28;20071;-72
2021/04/28 07:56:58;;;;;;;21.77;13.02;;;13.10;87.00;;;;;;5067195;28;20126;-72
2021/04/28 07:59:24;;;;;;;18.90;10.55;;;13.30;86.80;;;;;;5066506;28;20191;-72
2021/04/28 08:01:50;;;;;;;17.45;10.73;;;13.40;86.70;;;;;;5061943;28;20500;-72
2021/04/28 08:04:16;;;;;;;23.45;11.30;;;13.40;85.90;;;;;;5069690;28;20021;-72
2021/04/28 08:06:41;;;;;;;16.85;10.98;;;13.50;85.50;;;;;;5063149;28;20056;-71
2021/04/28 08:09:07;;;;;;;17.55;10.98;;;13.70;86.10;;;;;;5061606;28;20405;-72
2021/04/28 08:11:33;;;;;;;17.20;11.00;;;13.90;85.60;;;;;;5065288;28;20418;-72
2021/04/28 08:13:58;;;;;;;17.92;11.50;;;14.00;85.90;;;;;;5068529;28;20032;-72
2021/04/28 08:16:24;;;;;;;20.08;11.13;;;14.10;84.40;;;;;;5069360;28;20016;-72
2021/04/28 08:18:50;;;;;;;20.75;11.90;;;14.10;84.20;;;;;;5053152;28;20043;-72
2021/04/28 08:21:17;;;;;;;16.88;11.23;;;14.40;84.40;;;;;;5064166;28;20032;-72
2021/04/28 08:23:43;;;;;;;17.45;10.95;;;14.40;84.00;;;;;;5065839;28;20036;-73
2021/04/28 08:26:13;;;;;;;23.13;11.30;;;14.60;82.30;;;;;;5052742;28;20024;-72
2021/04/28 08:28:41;;;;;;;20.10;11.70;;;14.50;80.40;;;;;;5062736;28;20201;-72
2021/04/28 08:31:15;;;;;;;16.15;10.35;;;14.70;83.00;;;;;;5069456;28;20485;-72
2021/04/28 08:33:41;;;;;;;17.92;11.07;;;14.90;82.00;;;;;;5068740;28;20017;-72
2021/04/28 08:36:07;;;;;;;15.77;10.65;;;15.00;81.20;;;;;;5053950;28;20017;-73
2021/04/28 08:38:34;;;;;;;16.85;10.10;;;15.10;80.50;;;;;;5059122;28;20048;-73
2021/04/28 08:41:00;;;;;;;14.52;10.00;;;15.20;81.30;;;;;;5065245;28;20025;-72
2021/04/28 08:43:27;;;;;;;15.75;10.75;;;15.40;79.20;;;;;;5058682;28;20108;-72
2021/04/28 08:45:53;;;;;;;15.00;10.60;;;15.30;77.90;;;;;;5064971;28;20029;-72
2021/04/28 08:48:20;;;;;;;16.00;10.10;;;15.40;78.50;;;;;;5070971;28;20016;-73
2021/04/28 08:50:46;;;;;;;15.18;10.15;;;15.70;79.60;;;;;;5055139;28;20345;-72
2021/04/28 08:53:13;;;;;;;20.23;11.60;;;15.80;79.60;;;;;;5066530;28;20377;-72
2021/04/28 08:55:39;;;;;;;19.67;10.98;;;15.90;78.30;;;;;;5061090;28;20033;-73
2021/04/28 08:58:06;;;;;;;20.17;9.88;;;15.90;78.50;;;;;;5063274;28;20040;-73
2021/04/28 09:00:32;;;;;;;19.63;10.43;;;16.20;77.90;;;;;;5069564;28;20074;-72
2021/04/28 09:03:02;;;;;;;19.77;9.23;;;16.30;80.20;;;;;;5065332;28;20021;-72
2021/04/28 09:05:29;;;;;;;20.48;11.20;;;16.50;74.60;;;;;;5057721;28;20040;-72
2021/04/28 09:07:55;;;;;;;16.77;10.30;;;16.80;77.40;;;;;;5062568;28;20039;-72
2021/04/28 09:10:29;;;;;;;14.85;10.57;;;16.90;74.20;;;;;;5071071;28;20031;-73
2021/04/28 09:13:01;;;;;;;18.63;11.98;;;16.90;75.50;;;;;;5060513;28;20580;-72
2021/04/28 09:15:34;;;;;;;23.80;11.77;;;16.90;75.60;;;;;;5065125;28;20522;-72
2021/04/28 09:17:59;;;;;;;18.55;11.55;;;16.90;76.20;;;;;;5065973;28;20115;-72
2021/04/28 09:20:32;;;;;;;19.02;11.88;;;16.90;75.30;;;;;;5059800;28;20119;-72
2021/04/28 09:23:14;;;;;;;21.00;10.73;;;17.00;74.00;;;;;;5057521;28;20021;-72
2021/04/28 09:25:48;;;;;;;19.02;11.80;;;17.20;73.20;;;;;;5064969;28;20473;-72
2021/04/28 09:28:32;;;;;;;19.00;11.75;;;17.30;75.50;;;;;;5066980;28;20028;-71
2021/04/28 09:31:07;;;;;;;14.48;11.30;;;17.40;74.50;;;;;;5067440;28;20021;-72
2021/04/28 09:33:52;;;;;;;26.85;12.43;;;17.60;74.80;;;;;;5061157;28;20031;-71
2021/04/28 09:36:30;;;;;;;20.70;12.00;;;17.80;73.10;;;;;;5064562;28;20075;-71
2021/04/28 09:38:57;;;;;;;22.77;12.07;;;17.90;72.90;;;;;;5065167;28;20686;-71
2021/04/28 09:41:41;;;;;;;22.77;11.88;;;18.10;75.40;;;;;;5062609;28;20485;-71
2021/04/28 09:44:29;;;;;;;16.95;11.23;;;18.10;70.60;;;;;;5062661;28;20024;-70
2021/04/28 09:47:18;;;;;;;20.65;11.80;;;18.20;70.20;;;;;;5066209;28;20029;-72
2021/04/28 09:50:03;;;;;;;20.00;11.18;;;18.30;69.10;;;;;;5047208;28;20036;-72
2021/04/28 09:52:34;;;;;;;21.98;12.05;;;18.50;69.30;;;;;;5068414;28;20095;-72
2021/04/28 09:55:03;;;;;;;20.67;11.88;;;18.50;68.20;;;;;;5061727;28;20029;-72
2021/04/28 09:57:38;;;;;;;21.45;10.55;;;18.60;69.00;;;;;;5058655;28;20021;-72
2021/04/28 10:00:17;;;;;;;20.80;11.43;;;18.80;68.60;;;;;;5059614;28;20090;-72
2021/04/28 10:02:55;;;;;;;28.08;12.30;;;19.00;69.10;;;;;;5060427;28;20150;-72
2021/04/28 10:05:25;;;;;;;20.50;11.38;;;18.90;66.40;;;;;;5064056;28;20073;-72
2021/04/28 10:08:07;;;;;;;18.00;11.48;;;19.10;67.50;;;;;;5059751;28;20025;-72
2021/04/28 10:10:34;;;;;;;18.38;11.90;;;19.10;67.20;;;;;;5072583;28;20055;-72
2021/04/28 10:12:59;;;;;;;22.70;12.95;;;19.20;66.90;;;;;;5059925;28;20033;-72
2021/04/28 10:15:25;;;;;;;27.20;13.43;;;19.30;68.00;;;;;;5050374;28;20028;-72
2021/04/28 10:17:52;;;;;;;17.85;12.20;;;19.40;64.00;;;;;;5069858;28;20028;-72
2021/04/28 10:20:19;;;;;;;24.75;12.32;;;19.60;64.90;;;;;;5067805;28;20385;-72
2021/04/28 10:22:46;;;;;;;20.85;12.10;;;19.80;63.10;;;;;;5059439;28;20386;-73
2021/04/28 10:25:14;;;;;;;29.52;11.80;;;20.00;65.20;;;;;;5064305;28;20073;-72
2021/04/28 10:27:40;;;;;;;32.72;12.73;;;19.90;61.20;;;;;;5070661;28;20070;-72
2021/04/28 10:30:07;;;;;;;15.82;10.80;;;20.00;63.00;;;;;;5047790;28;20017;-73
2021/04/28 10:32:35;;;;;;;23.73;12.35;;;19.90;61.40;;;;;;5062660;28;20032;-73
2021/04/28 10:35:08;;;;;;;20.40;12.30;;;19.80;59.70;;;;;;5066270;28;20378;-73
2021/04/28 10:37:36;;;;;;;16.60;10.70;;;19.90;60.80;;;;;;5062138;28;20036;-73
2021/04/28 10:40:13;;;;;;;18.67;12.30;;;20.10;59.20;;;;;;5073292;28;20036;-70
2021/04/28 10:42:39;;;;;;;17.65;11.70;;;20.30;58.60;;;;;;5063216;28;20029;-72
2021/04/28 10:45:07;;;;;;;20.95;12.75;;;20.20;58.20;;;;;;5082722;28;20131;-72
2021/04/28 10:47:35;;;;;;;18.08;11.25;;;20.00;58.70;;;;;;5063507;28;20053;-73
2021/04/28 10:50:27;;;;;;;17.88;11.05;;;20.30;58.20;;;;;;5065986;28;20020;-73
2021/04/28 10:53:07;;;;;;;20.27;11.40;;;20.50;58.90;;;;;;5063156;28;20081;-73
2021/04/28 10:55:40;;;;;;;17.42;11.30;;;20.70;57.10;;;;;;5065218;28;20079;-72
2021/04/28 10:58:32;;;;;;;15.82;10.30;;;20.80;57.30;;;;;;5058509;28;20029;-73
2021/04/28 11:01:00;;;;;;;19.30;12.32;;;21.00;57.30;;;;;;5071391;28;20043;-72
2021/04/28 11:03:53;;;;;;;18.85;11.77;;;20.70;56.00;;;;;;5065431;28;20026;-73
2021/04/28 11:06:22;;;;;;;20.13;9.73;;;20.90;56.60;;;;;;5054316;28;20041;-73
2021/04/28 11:08:59;;;;;;;17.05;11.80;;;21.00;51.70;;;;;;5050421;28;20056;-73
2021/04/28 11:11:44;;;;;;;16.10;10.57;;;21.10;52.80;;;;;;5061940;28;20027;-72
2021/04/28 11:16:43;;;;;;;18.63;11.82;;;21.30;54.80;;;;;;5062473;28;20017;-72
2021/04/28 11:19:15;;;;;;;15.95;11.30;;;21.40;54.10;;;;;;5064592;28;20044;-70
2021/04/28 11:21:42;;;;;;;15.48;10.93;;;21.50;57.50;;;;;;5052444;28;20091;-70
2021/04/28 11:24:15;;;;;;;22.30;12.27;;;21.60;56.50;;;;;;5061932;28;20048;-73
2021/04/28 11:26:50;;;;;;;19.10;11.38;;;21.50;53.10;;;;;;5063561;28;20052;-73
2021/04/28 11:29:19;;;;;;;13.43;8.57;;;21.30;56.60;;;;;;5065554;28;20036;-70
2021/04/28 11:31:46;;;;;;;9.70;8.70;;;21.20;49.00;;;;;;5067888;28;20512;-70
2021/04/28 11:34:24;;;;;;;12.77;10.07;;;21.40;52.10;;;;;;5071759;28;20022;-71
2021/04/28 11:36:56;;;;;;;10.55;8.75;;;21.50;48.80;;;;;;5064377;28;20028;-72
2021/04/28 11:39:42;;;;;;;14.02;10.00;;;21.40;50.80;;;;;;5060545;28;20386;-72
2021/04/28 11:42:10;;;;;;;11.52;9.20;;;21.50;51.10;;;;;;5056446;28;20033;-71
2021/04/28 11:44:45;;;;;;;12.80;9.20;;;21.60;48.70;;;;;;5064231;28;20115;-72
2021/04/28 11:47:16;;;;;;;15.23;8.95;;;21.90;52.30;;;;;;5061540;28;20075;-71
2021/04/28 11:49:50;;;;;;;12.18;8.68;;;21.90;49.20;;;;;;5062525;28;20036;-70
2021/04/28 11:52:18;;;;;;;8.93;7.60;;;22.10;52.30;;;;;;5055794;28;20021;-71
2021/04/28 11:54:51;;;;;;;11.40;7.00;;;21.80;52.30;;;;;;5062609;28;20033;-71
2021/04/28 11:57:30;;;;;;;11.77;7.18;;;21.80;47.90;;;;;;5058934;28;20025;-71
2021/04/28 12:00:10;;;;;;;9.63;7.03;;;22.00;48.10;;;;;;5050197;28;20551;-72
2021/04/28 12:02:37;;;;;;;6.60;5.90;;;22.00;48.80;;;;;;5061041;28;20028;-71
2021/04/28 12:05:04;;;;;;;11.18;5.05;;;21.80;43.40;;;;;;5056145;28;20136;-72
2021/04/28 12:07:32;;;;;;;11.98;7.75;;;22.00;44.80;;;;;;5063438;28;20365;-72
2021/04/28 12:09:58;;;;;;;8.27;7.38;;;22.00;46.30;;;;;;5066031;28;20025;-72
2021/04/28 12:12:33;;;;;;;8.90;7.00;;;22.20;45.90;;;;;;5065577;28;20393;-71
2021/04/28 12:15:05;;;;;;;14.38;8.23;;;22.10;47.40;;;;;;5051080;28;20115;-72
2021/04/28 12:17:33;;;;;;;13.38;7.68;;;22.10;46.90;;;;;;5074247;28;20042;-72
2021/04/28 12:19:59;;;;;;;10.25;7.97;;;22.10;45.80;;;;;;5077443;28;20445;-71
2021/04/28 12:22:26;;;;;;;11.93;8.63;;;22.20;48.30;;;;;;5050640;28;20116;-72
2021/04/28 12:24:57;;;;;;;15.02;8.93;;;22.40;49.00;;;;;;5067305;28;20481;-72
2021/04/28 12:27:27;;;;;;;11.85;7.97;;;22.40;46.40;;;;;;5071258;28;20456;-72
2021/04/28 12:29:54;;;;;;;15.68;8.32;;;22.40;46.70;;;;;;5065352;28;20036;-72
2021/04/28 12:32:26;;;;;;;9.73;7.80;;;22.50;48.10;;;;;;5069328;28;20032;-72
2021/04/28 12:35:13;;;;;;;12.18;8.43;;;22.60;47.40;;;;;;5045465;28;20021;-72
2021/04/28 12:37:40;;;;;;;12.40;9.43;;;22.30;45.00;;;;;;5069363;28;20378;-72
2021/04/28 12:40:10;;;;;;;12.55;8.52;;;22.30;46.50;;;;;;5063339;28;20516;-72
2021/04/28 12:42:38;;;;;;;19.17;8.90;;;22.40;48.10;;;;;;5067941;28;20048;-72
2021/04/28 12:45:11;;;;;;;12.05;8.43;;;22.50;47.80;;;;;;5068457;28;20024;-72
2021/04/28 12:47:37;;;;;;;12.02;8.50;;;22.50;45.50;;;;;;5060877;28;20032;-72